Terminal Aerodrome Forecast
Issued by NWS

Home | Current Version | Previous Version | Text Only | Print | Product List | Glossary Off
Versions: 1 2 3 4 5 6 7 8 9 10 11 12 13 14 15 16 17 18 19 20

000
FTUS43 KBIS 040550
TAFDIK
TAF
KDIK 040550Z 0406/0506 03008KT P6SM BKN200
     FM040900 02011KT 5SM BR VCSH SCT020 OVC180
     FM041100 01008KT 3SM -SHRA BR BKN025 OVC140
     FM041500 04007KT P6SM VCSH SCT030 BKN110
     FM041900 09010KT P6SM SCT050 SCT120
     FM050100 06009KT P6SM SCT070=

USA.gov is the U.S. government's official web portal to all federal, state and local government web resources and services.